createdAt,value
2022-11-18T00:01:36.862Z,9.78
2022-11-18T00:04:39.222Z,9.91
2022-11-18T00:07:41.387Z,9.79
2022-11-18T00:10:43.545Z,10.11
2022-11-18T00:14:04.458Z,10.12
2022-11-18T00:17:06.811Z,10.14
2022-11-18T00:20:09.207Z,10.38
2022-11-18T00:23:12.143Z,9.93
2022-11-18T00:26:14.631Z,10.12
2022-11-18T00:29:17.287Z,10.02
2022-11-18T00:32:19.542Z,9.97
2022-11-18T00:35:21.648Z,9.98
2022-11-18T00:38:24.449Z,9.87
2022-11-18T00:41:46.483Z,10.04
2022-11-18T00:44:48.605Z,10.00
2022-11-18T00:47:50.691Z,9.88
2022-11-18T00:50:55.626Z,9.92
2022-11-18T00:53:57.730Z,9.93
2022-11-18T00:57:00.001Z,9.69
2022-11-18T01:00:02.054Z,9.50
2022-11-18T01:03:04.270Z,9.64
2022-11-18T01:06:06.398Z,9.54
2022-11-18T01:09:08.594Z,9.66
2022-11-18T01:12:54.066Z,9.86
2022-11-18T01:15:58.010Z,9.38
2022-11-18T01:19:00.065Z,9.73
2022-11-18T01:22:03.381Z,9.61
2022-11-18T01:25:05.813Z,9.61
2022-11-18T01:28:07.882Z,9.94
2022-11-18T01:31:12.742Z,10.01
2022-11-18T01:34:14.784Z,9.90
2022-11-18T01:37:16.904Z,9.81
2022-11-18T01:40:19.062Z,9.82
2022-11-18T01:43:21.797Z,9.65
2022-11-18T01:46:26.062Z,9.59
2022-11-18T01:49:28.102Z,9.48
2022-11-18T01:52:30.283Z,9.34
2022-11-18T01:55:35.044Z,9.69
2022-11-18T01:58:41.366Z,9.39
2022-11-18T02:01:43.447Z,9.61
2022-11-18T02:04:48.574Z,9.13
2022-11-18T02:07:50.638Z,9.39
2022-11-18T02:10:52.706Z,9.28
2022-11-18T02:13:54.754Z,9.23
2022-11-18T02:17:27.603Z,9.42
2022-11-18T02:20:39.336Z,9.12
2022-11-18T02:24:21.007Z,9.29
2022-11-18T02:27:49.313Z,9.10
2022-11-18T02:31:00.972Z,9.14
2022-11-18T02:34:34.213Z,8.92
2022-11-18T02:37:54.632Z,9.14
2022-11-18T02:41:04.007Z,9.24
2022-11-18T02:44:12.423Z,9.11
2022-11-18T02:47:14.929Z,9.26
2022-11-18T02:50:21.331Z,9.18
2022-11-18T02:53:23.411Z,9.15
2022-11-18T02:56:25.686Z,9.06
2022-11-18T02:59:28.977Z,8.95
2022-11-18T03:02:44.701Z,8.86
2022-11-18T03:06:22.266Z,8.90
2022-11-18T03:09:30.021Z,8.69
2022-11-18T03:12:40.831Z,8.84
2022-11-18T03:16:03.968Z,8.73
2022-11-18T03:19:13.766Z,8.75
2022-11-18T03:22:44.771Z,8.48
2022-11-18T03:26:16.247Z,8.55
2022-11-18T03:29:47.115Z,8.71
2022-11-18T03:33:04.783Z,8.47
2022-11-18T03:36:08.345Z,8.50
2022-11-18T03:39:10.745Z,8.61
2022-11-18T03:42:41.660Z,8.57
2022-11-18T03:45:49.575Z,8.49
2022-11-18T03:48:54.392Z,8.53
2022-11-18T03:52:00.903Z,8.54
2022-11-18T03:55:07.991Z,8.36
2022-11-18T03:58:51.095Z,8.57
2022-11-18T04:02:00.136Z,8.47
2022-11-18T04:05:03.902Z,8.62
2022-11-18T04:08:15.831Z,8.45
2022-11-18T04:11:41.121Z,8.52
2022-11-18T04:14:44.778Z,8.47
2022-11-18T04:17:46.873Z,8.54
2022-11-18T04:20:48.932Z,8.43
2022-11-18T04:23:56.019Z,8.48
2022-11-18T04:26:58.097Z,8.40
2022-11-18T04:30:00.136Z,8.58
2022-11-18T04:33:07.226Z,8.47
2022-11-18T04:36:09.670Z,8.55
2022-11-18T04:39:11.838Z,8.34
2022-11-18T04:42:13.906Z,8.30
2022-11-18T04:45:16.042Z,8.39
2022-11-18T04:48:19.233Z,8.39
2022-11-18T04:51:21.296Z,8.47
2022-11-18T04:54:23.873Z,8.35
2022-11-18T04:57:25.943Z,8.31
2022-11-18T05:00:28.085Z,8.39
2022-11-18T05:03:30.211Z,8.49
2022-11-18T05:06:32.742Z,8.58
2022-11-18T05:09:35.038Z,8.54
2022-11-18T05:12:49.644Z,8.37
2022-11-18T05:15:51.814Z,8.27
2022-11-18T05:18:53.984Z,8.30
2022-11-18T05:21:56.134Z,8.16
2022-11-18T05:24:58.234Z,8.04
2022-11-18T05:28:00.385Z,8.21
2022-11-18T05:31:13.987Z,8.15
2022-11-18T05:34:16.289Z,8.18
2022-11-18T05:37:18.404Z,8.15
2022-11-18T05:40:20.475Z,8.17
2022-11-18T05:43:22.543Z,8.18
2022-11-18T05:46:24.874Z,8.21
2022-11-18T05:49:26.923Z,8.16
2022-11-18T05:52:29.051Z,8.03
2022-11-18T05:55:42.379Z,8.12
2022-11-18T05:58:44.580Z,8.09
2022-11-18T06:01:55.455Z,8.03
2022-11-18T06:04:59.861Z,8.00
2022-11-18T06:08:01.895Z,8.05
2022-11-18T06:11:03.974Z,8.00
2022-11-18T06:14:14.124Z,7.76
2022-11-18T06:17:22.482Z,7.79
2022-11-18T06:20:24.610Z,7.90
2022-11-18T06:23:28.400Z,7.87
2022-11-18T06:26:30.494Z,7.96
2022-11-18T06:29:32.641Z,7.85
2022-11-18T06:32:34.734Z,7.69
2022-11-18T06:35:36.858Z,7.87
2022-11-18T06:38:39.113Z,7.73
2022-11-18T06:41:41.269Z,7.95
2022-11-18T06:44:43.368Z,7.95
2022-11-18T06:47:45.515Z,7.88
2022-11-18T06:50:47.587Z,7.83
2022-11-18T06:53:50.230Z,7.96
2022-11-18T06:56:52.393Z,7.88
2022-11-18T06:59:59.030Z,7.90
2022-11-18T07:03:02.999Z,8.01
2022-11-18T07:06:06.030Z,7.98
2022-11-18T07:09:08.303Z,7.95
2022-11-18T07:12:10.471Z,7.94
2022-11-18T07:15:12.590Z,7.99
2022-11-18T07:18:14.670Z,8.01
2022-11-18T07:21:21.987Z,8.15
2022-11-18T07:24:24.159Z,8.02
2022-11-18T07:27:26.239Z,7.85
2022-11-18T07:30:28.456Z,7.78
2022-11-18T07:33:31.452Z,7.77
2022-11-18T07:36:35.806Z,7.66
2022-11-18T07:39:38.358Z,7.50
2022-11-18T07:42:45.471Z,7.70
2022-11-18T07:45:59.575Z,7.90
2022-11-18T07:49:03.258Z,7.87
2022-11-18T07:52:15.470Z,8.03
2022-11-18T07:55:17.620Z,8.02
2022-11-18T07:58:19.686Z,8.23
2022-11-18T08:01:24.192Z,8.07
2022-11-18T08:04:26.288Z,7.97
2022-11-18T08:07:29.052Z,7.69
2022-11-18T08:10:31.343Z,7.75
2022-11-18T08:13:33.685Z,7.72
2022-11-18T08:16:35.743Z,7.89
2022-11-18T08:19:37.782Z,7.74
2022-11-18T08:22:39.926Z,7.81
2022-11-18T08:25:43.098Z,7.92
2022-11-18T08:28:45.405Z,8.01
2022-11-18T08:31:47.557Z,8.01
2022-11-18T08:34:51.133Z,8.28
2022-11-18T08:37:53.207Z,8.21
2022-11-18T08:40:55.259Z,8.14
2022-11-18T08:43:57.333Z,8.25
2022-11-18T08:46:59.430Z,8.33
2022-11-18T08:50:01.950Z,8.30
2022-11-18T08:53:04.002Z,8.40
2022-11-18T08:56:06.316Z,8.20
2022-11-18T08:59:08.976Z,8.33
2022-11-18T09:02:22.292Z,8.27
2022-11-18T09:05:24.337Z,8.20
2022-11-18T09:08:26.785Z,8.52
2022-11-18T09:11:28.886Z,8.35
2022-11-18T09:17:53.382Z,8.27
2022-11-18T09:21:04.308Z,8.29
2022-11-18T09:24:07.162Z,8.23
2022-11-18T09:27:15.204Z,8.42
2022-11-18T09:30:18.937Z,8.45
2022-11-18T09:33:21.786Z,8.26
2022-11-18T09:36:24.908Z,8.31
2022-11-18T09:39:26.975Z,8.35
2022-11-18T09:42:51.127Z,8.23
2022-11-18T09:45:58.529Z,8.32
2022-11-18T09:49:13.092Z,8.26
2022-11-18T09:52:23.865Z,8.32
2022-11-18T09:55:25.891Z,8.23
2022-11-18T09:58:34.333Z,8.17
2022-11-18T10:01:37.061Z,8.51
2022-11-18T10:04:39.232Z,8.33
2022-11-18T10:07:59.129Z,8.25
2022-11-18T10:11:08.296Z,8.18
2022-11-18T10:14:42.501Z,8.15
2022-11-18T10:17:51.376Z,8.14
2022-11-18T10:21:24.071Z,8.19
2022-11-18T10:24:30.577Z,8.24
2022-11-18T10:27:40.318Z,8.27
2022-11-18T10:30:42.393Z,8.40
2022-11-18T10:33:44.502Z,8.67
2022-11-18T10:37:14.391Z,8.47
2022-11-18T10:40:26.127Z,8.58
2022-11-18T10:43:54.990Z,8.81
2022-11-18T10:47:15.362Z,8.83
2022-11-18T10:50:28.579Z,8.75
2022-11-18T10:53:33.224Z,9.16
2022-11-18T10:57:04.957Z,9.06
2022-11-18T11:00:33.221Z,8.75
2022-11-18T11:03:38.780Z,8.74
2022-11-18T11:06:40.965Z,8.66
2022-11-18T11:09:43.561Z,8.96
2022-11-18T11:13:09.109Z,8.75
2022-11-18T11:16:11.286Z,8.85
2022-11-18T11:19:13.499Z,9.14
2022-11-18T11:22:15.696Z,9.40
2022-11-18T11:25:28.936Z,9.44
2022-11-18T11:29:05.984Z,9.83
2022-11-18T11:32:41.124Z,9.37
2022-11-18T11:36:22.492Z,9.40
2022-11-18T11:40:20.328Z,9.39
2022-11-18T11:43:38.090Z,9.10
2022-11-18T11:47:32.677Z,9.09
2022-11-18T11:51:03.369Z,9.32
2022-11-18T11:54:56.312Z,9.46
2022-11-18T11:58:23.296Z,9.61
2022-11-18T12:01:42.192Z,9.42
2022-11-18T12:04:52.475Z,9.73
2022-11-18T12:07:59.975Z,9.85
2022-11-18T12:11:21.745Z,9.42
2022-11-18T12:14:53.534Z,9.36
2022-11-18T12:18:33.437Z,9.71
2022-11-18T12:21:47.385Z,9.41
2022-11-18T12:24:49.614Z,9.23
2022-11-18T12:27:59.143Z,9.42
2022-11-18T12:31:19.663Z,9.37
2022-11-18T12:34:43.062Z,9.62
2022-11-18T12:37:57.877Z,9.85
2022-11-18T12:41:19.889Z,10.21
2022-11-18T12:44:26.502Z,10.30
2022-11-18T12:47:40.593Z,10.42
2022-11-18T12:51:15.489Z,10.42
2022-11-18T12:54:32.431Z,9.66
2022-11-18T12:57:34.641Z,9.59
2022-11-18T13:00:52.589Z,9.66
2022-11-18T13:04:12.471Z,9.63
2022-11-18T13:07:34.574Z,9.44
2022-11-18T13:10:50.351Z,9.24
2022-11-18T13:14:15.319Z,9.12
2022-11-18T13:17:54.735Z,9.42
2022-11-18T13:20:59.114Z,9.33
2022-11-18T13:24:01.320Z,9.15
2022-11-18T13:27:03.398Z,9.17
2022-11-18T13:30:11.150Z,9.47
2022-11-18T13:33:13.372Z,9.31
2022-11-18T13:36:20.395Z,9.77
2022-11-18T13:39:23.284Z,9.61
2022-11-18T13:42:30.400Z,9.61
2022-11-18T13:45:32.510Z,9.68
2022-11-18T13:48:34.617Z,9.68
2022-11-18T13:51:38.676Z,10.13
2022-11-18T13:54:40.862Z,10.35
2022-11-18T13:58:07.544Z,10.26
2022-11-18T14:01:19.597Z,9.94
2022-11-18T14:04:27.569Z,10.25
2022-11-18T14:07:33.068Z,10.10
2022-11-18T14:10:44.623Z,9.78
2022-11-18T14:13:52.213Z,9.76
2022-11-18T14:16:54.327Z,9.50
2022-11-18T14:19:58.186Z,9.85
2022-11-18T14:23:01.433Z,9.82
2022-11-18T14:26:05.614Z,9.88
2022-11-18T14:29:22.926Z,9.94
2022-11-18T14:32:28.030Z,9.70
2022-11-18T14:35:33.524Z,9.59
2022-11-18T14:39:11.850Z,9.68
2022-11-18T14:42:12.915Z,9.65
2022-11-18T14:45:15.118Z,9.50
2022-11-18T14:48:19.793Z,9.48
2022-11-18T14:51:21.928Z,9.66
2022-11-18T14:54:27.626Z,9.57
2022-11-18T14:57:30.168Z,9.58
2022-11-18T15:00:32.652Z,9.78
2022-11-18T15:03:34.889Z,10.00
2022-11-18T15:06:37.180Z,9.83
2022-11-18T15:09:39.274Z,9.89
2022-11-18T15:12:41.361Z,9.60
2022-11-18T15:15:43.432Z,9.62
2022-11-18T15:18:48.118Z,9.61
2022-11-18T15:21:50.829Z,9.40
2022-11-18T15:24:52.914Z,9.19
2022-11-18T15:27:55.000Z,9.30
2022-11-18T15:30:57.079Z,9.29
2022-11-18T15:34:05.046Z,8.93
2022-11-18T15:37:12.313Z,8.88
2022-11-18T15:40:14.404Z,8.86
2022-11-18T15:43:17.899Z,8.80
2022-11-18T15:46:21.228Z,8.92
2022-11-18T15:49:23.411Z,9.05
2022-11-18T15:52:27.179Z,9.04
2022-11-18T15:55:29.209Z,9.06
2022-11-18T15:58:35.667Z,8.91
2022-11-18T16:01:40.364Z,8.84
2022-11-18T16:04:42.554Z,8.71
2022-11-18T16:07:44.941Z,8.85
2022-11-18T16:11:05.589Z,9.08
2022-11-18T16:14:10.399Z,9.57
2022-11-18T16:17:12.417Z,9.89
2022-11-18T16:20:14.598Z,10.15
2022-11-18T16:23:16.868Z,10.12
2022-11-18T16:26:18.926Z,9.73
2022-11-18T16:29:23.095Z,9.76
2022-11-18T16:32:25.891Z,10.04
2022-11-18T16:35:28.151Z,10.24
2022-11-18T16:38:30.169Z,10.50
2022-11-18T16:41:32.291Z,10.36
2022-11-18T16:44:34.963Z,10.32
2022-11-18T16:47:38.448Z,10.41
2022-11-18T16:50:40.706Z,10.34
2022-11-18T16:53:42.756Z,10.62
2022-11-18T16:56:45.256Z,10.89
2022-11-18T16:59:47.377Z,10.67
2022-11-18T17:02:49.464Z,10.65
2022-11-18T17:05:51.502Z,10.83
2022-11-18T17:08:53.582Z,10.96
2022-11-18T17:11:55.936Z,10.89
2022-11-18T17:14:57.962Z,10.53
2022-11-18T17:18:00.015Z,10.44
2022-11-18T17:21:06.794Z,10.35
2022-11-18T17:24:09.214Z,10.63
2022-11-18T17:27:11.245Z,11.02
2022-11-18T17:30:14.218Z,11.06
2022-11-18T17:33:16.245Z,11.08
2022-11-18T17:36:20.452Z,11.17
2022-11-18T17:39:22.510Z,11.16
2022-11-18T17:42:25.815Z,11.20
2022-11-18T17:45:27.886Z,11.24
2022-11-18T17:48:30.516Z,11.17
2022-11-18T17:51:32.652Z,11.20
2022-11-18T17:54:34.737Z,11.20
2022-11-18T17:57:36.773Z,11.25
2022-11-18T18:00:39.249Z,11.21
2022-11-18T18:03:41.517Z,10.89
2022-11-18T18:06:43.554Z,10.92
2022-11-18T18:09:45.614Z,10.88
2022-11-18T18:13:06.407Z,10.84
2022-11-18T18:16:08.484Z,10.84
2022-11-18T18:19:12.136Z,10.87
2022-11-18T18:22:14.182Z,11.07
2022-11-18T18:25:16.424Z,10.88
2022-11-18T18:28:18.518Z,10.95
2022-11-18T18:31:20.617Z,11.13
2022-11-18T18:34:22.767Z,11.22
2022-11-18T18:37:24.845Z,11.22
2022-11-18T18:40:26.892Z,11.16
2022-11-18T18:43:29.037Z,11.10
2022-11-18T18:46:33.794Z,11.00
2022-11-18T18:49:35.895Z,10.46
2022-11-18T18:52:37.985Z,10.51
2022-11-18T18:55:44.695Z,10.24
2022-11-18T18:58:47.341Z,10.49
2022-11-18T19:01:49.474Z,10.62
2022-11-18T19:04:52.858Z,10.23
2022-11-18T19:07:54.966Z,10.61
2022-11-18T19:10:57.058Z,10.81
2022-11-18T19:14:07.028Z,11.01
2022-11-18T19:17:12.158Z,10.80
2022-11-18T19:20:33.382Z,11.06
2022-11-18T19:23:35.451Z,10.97
2022-11-18T19:26:37.519Z,11.10
2022-11-18T19:29:39.590Z,10.93
2022-11-18T19:32:42.340Z,11.07
2022-11-18T19:35:44.366Z,10.95
2022-11-18T19:38:49.417Z,11.02
2022-11-18T19:41:51.446Z,11.06
2022-11-18T19:44:53.461Z,10.77
2022-11-18T19:47:55.618Z,11.01
2022-11-18T19:51:12.345Z,10.71
2022-11-18T19:54:14.384Z,10.82
2022-11-18T19:57:16.518Z,10.68
2022-11-18T20:00:19.280Z,10.83
2022-11-18T20:03:21.365Z,10.92
2022-11-18T20:06:24.383Z,11.01
2022-11-18T20:09:26.521Z,10.90
2022-11-18T20:12:29.727Z,11.05
2022-11-18T20:15:31.783Z,11.15
2022-11-18T20:18:33.888Z,11.17
2022-11-18T20:21:35.976Z,11.17
2022-11-18T20:24:38.038Z,11.13
2022-11-18T20:27:40.097Z,11.14
2022-11-18T20:30:42.334Z,11.13
2022-11-18T20:33:49.346Z,10.96
2022-11-18T20:36:54.530Z,11.03
2022-11-18T20:39:56.697Z,11.18
2022-11-18T20:43:14.283Z,11.20
2022-11-18T20:46:20.623Z,11.10
2022-11-18T20:49:23.188Z,11.18
2022-11-18T20:52:25.242Z,11.23
2022-11-18T20:55:27.350Z,11.19
2022-11-18T20:58:29.446Z,11.04
2022-11-18T21:01:33.026Z,11.18
2022-11-18T21:04:35.138Z,10.93
2022-11-18T21:07:37.271Z,11.07
2022-11-18T21:10:39.351Z,10.81
2022-11-18T21:14:00.448Z,10.69
2022-11-18T21:17:02.661Z,10.97
2022-11-18T21:20:25.719Z,11.15
2022-11-18T21:23:27.832Z,11.02
2022-11-18T21:26:31.653Z,10.70
2022-11-18T21:29:33.889Z,10.85
2022-11-18T21:32:35.925Z,10.93
2022-11-18T21:35:38.072Z,10.88
2022-11-18T21:38:40.157Z,10.24
2022-11-18T21:41:42.234Z,9.97
2022-11-18T21:44:44.250Z,9.74
2022-11-18T21:47:46.422Z,9.80
2022-11-18T21:50:48.446Z,9.65
2022-11-18T21:53:50.511Z,9.60
2022-11-18T21:56:53.705Z,9.51
2022-11-18T21:59:55.889Z,9.30
2022-11-18T22:02:57.934Z,9.08
2022-11-18T22:06:02.312Z,8.91
2022-11-18T22:09:06.193Z,8.87
2022-11-18T22:12:08.375Z,8.81
2022-11-18T22:15:11.266Z,8.76
2022-11-18T22:18:13.348Z,9.04
2022-11-18T22:21:17.862Z,8.83
2022-11-18T22:24:19.934Z,8.60
2022-11-18T22:27:21.982Z,8.69
2022-11-18T22:30:24.019Z,8.59
2022-11-18T22:33:26.058Z,8.80
2022-11-18T22:36:28.222Z,8.57
2022-11-18T22:39:30.290Z,8.59
2022-11-18T22:42:47.214Z,8.64
2022-11-18T22:45:49.244Z,8.65
2022-11-18T22:48:51.324Z,8.58
2022-11-18T22:51:53.373Z,8.55
2022-11-18T22:54:55.423Z,8.48
2022-11-18T22:57:57.457Z,8.50
2022-11-18T23:01:09.849Z,8.40
2022-11-18T23:04:11.912Z,8.29
2022-11-18T23:07:13.964Z,8.16
2022-11-18T23:10:16.075Z,8.12
2022-11-18T23:13:36.663Z,8.25
2022-11-18T23:16:41.431Z,8.16
2022-11-18T23:19:43.990Z,8.04
2022-11-18T23:22:46.187Z,8.05
2022-11-18T23:25:48.281Z,8.22
2022-11-18T23:28:50.518Z,8.23
2022-11-18T23:31:53.898Z,8.20
2022-11-18T23:34:55.965Z,8.36
2022-11-18T23:37:57.989Z,8.46
2022-11-18T23:41:06.234Z,8.31
2022-11-18T23:44:08.296Z,8.41
2022-11-18T23:47:10.338Z,8.25
2022-11-18T23:50:12.388Z,8.13
2022-11-18T23:53:14.443Z,8.42
2022-11-18T23:56:18.029Z,8.30
2022-11-18T23:59:20.244Z,8.11
